Time;durP1;ratioP1;P1;durP2;ratioP2;P2;SDS_P1;SDS_P2;PMS_P1;PMS_P2;Temp;Humidity;BMP_temperature;BMP_pressure;BME280_temperature;BME280_humidity;BME280_pressure;Samples;Min_cycle;Max_cycle;Signal;HPM_P1;HPM_P2
2022/09/18 00:00:47;;;;;;;4.63;1.50;;;;;;;11.17;100.00;101803.59;5049619;28;20776;-68
2022/09/18 00:03:14;;;;;;;12.17;2.10;;;;;;;11.21;100.00;101800.31;5032951;28;20546;-70
2022/09/18 00:05:41;;;;;;;5.90;2.20;;;;;;;11.31;100.00;101794.63;5051948;28;20051;-68
2022/09/18 00:08:07;;;;;;;8.18;2.35;;;;;;;11.41;100.00;101814.44;5045501;28;20025;-68
2022/09/18 00:10:38;;;;;;;6.07;1.57;;;;;;;11.44;100.00;101823.19;5049496;28;20037;-68
2022/09/18 00:13:03;;;;;;;7.13;2.10;;;;;;;11.37;100.00;101818.59;5029366;28;20021;-68
2022/09/18 00:15:28;;;;;;;10.60;2.70;;;;;;;11.37;100.00;101813.13;5050745;28;20392;-68
2022/09/18 00:17:54;;;;;;;6.60;1.87;;;;;;;11.37;100.00;101793.91;5050983;28;20431;-70
2022/09/18 00:20:19;;;;;;;12.90;2.20;;;;;;;11.39;100.00;101797.31;5051950;28;20025;-69
2022/09/18 00:22:45;;;;;;;5.80;1.93;;;;;;;11.43;100.00;101787.72;5050160;28;20095;-69
2022/09/18 00:25:11;;;;;;;11.30;2.40;;;;;;;11.38;100.00;101790.13;5050407;28;20090;-70
2022/09/18 00:27:37;;;;;;;11.50;2.73;;;;;;;11.33;100.00;101787.94;5049545;28;20124;-69
2022/09/18 00:30:02;;;;;;;5.17;1.93;;;;;;;11.28;100.00;101790.38;5049760;28;20052;-70
2022/09/18 00:32:28;;;;;;;13.40;2.10;;;;;;;11.25;100.00;101784.34;5047153;28;20079;-68
2022/09/18 00:34:53;;;;;;;6.80;2.60;;;;;;;11.25;100.00;101778.88;5023320;28;20037;-69
2022/09/18 00:37:18;;;;;;;8.67;1.73;;;;;;;11.23;100.00;101780.94;5048104;28;20036;-69
2022/09/18 00:39:44;;;;;;;8.07;2.00;;;;;;;11.28;99.72;101779.41;5014124;28;20549;-69
2022/09/18 00:42:12;;;;;;;5.50;1.90;;;;;;;11.28;99.22;101778.53;5025952;28;20026;-71
2022/09/18 00:44:43;;;;;;;15.05;1.67;;;;;;;11.30;98.67;101771.81;5050082;28;20549;-69
2022/09/18 00:47:08;;;;;;;8.02;1.95;;;;;;;11.35;98.63;101780.38;5033642;28;20476;-69
2022/09/18 00:49:36;;;;;;;10.70;1.53;;;;;;;11.35;97.46;101777.63;5048117;28;20039;-70
2022/09/18 00:52:03;;;;;;;7.78;1.30;;;;;;;11.30;97.86;101779.19;5017264;28;20033;-69
2022/09/18 00:54:31;;;;;;;10.50;1.30;;;;;;;11.31;97.98;101778.19;5047111;28;20033;-70
2022/09/18 00:57:02;;;;;;;7.53;1.77;;;;;;;11.28;98.46;101782.13;5046089;28;20086;-69
2022/09/18 00:59:30;;;;;;;13.57;1.65;;;;;;;11.33;97.56;101778.84;5048064;28;20056;-68
2022/09/18 01:01:56;;;;;;;7.07;2.05;;;;;;;11.36;97.08;101781.25;5035579;28;20033;-69
2022/09/18 01:04:22;;;;;;;7.93;1.58;;;;;;;11.39;97.41;101778.13;5049897;28;20434;-68
2022/09/18 01:07:34;;;;;;;8.43;1.43;;;;;;;11.35;97.65;101788.59;5031764;28;20028;-68
2022/09/18 01:10:17;;;;;;;10.75;1.38;;;;;;;11.28;98.07;101790.38;4967238;28;20049;-68
2022/09/18 01:12:55;;;;;;;13.65;1.63;;;;;;;11.32;97.50;101790.84;5047762;28;20029;-71
2022/09/18 01:15:48;;;;;;;11.15;1.58;;;;;;;11.30;98.26;101799.25;5045022;28;20024;-68
2022/09/18 01:18:22;;;;;;;8.30;2.30;;;;;;;11.38;97.84;101798.38;5019063;28;20040;-68
2022/09/18 01:20:53;;;;;;;5.40;1.45;;;;;;;11.55;96.51;101811.81;5032725;28;20492;-69
2022/09/18 01:23:37;;;;;;;8.57;1.80;;;;;;;11.63;94.44;101797.25;5041637;28;20397;-68
2022/09/18 01:26:33;;;;;;;9.95;1.58;;;;;;;11.61;95.67;101802.91;5041349;28;20495;-69
2022/09/18 01:29:17;;;;;;;11.02;1.58;;;;;;;11.64;94.67;101793.44;5029682;28;20029;-69
2022/09/18 01:31:42;;;;;;;12.30;1.52;;;;;;;11.69;93.85;101788.28;5050028;28;20036;-69
2022/09/18 01:34:19;;;;;;;10.70;2.17;;;;;;;11.63;94.70;101789.84;5043773;28;20040;-70
2022/09/18 01:36:50;;;;;;;14.85;3.17;;;;;;;11.58;95.34;101785.91;5013469;28;20388;-69
2022/09/18 01:39:57;;;;;;;6.55;1.27;;;;;;;11.53;95.28;101786.44;5045791;28;20340;-71
2022/09/18 01:42:25;;;;;;;9.70;1.38;;;;;;;11.54;95.39;101773.59;5038978;28;20203;-71
2022/09/18 01:44:56;;;;;;;6.30;1.75;;;;;;;11.53;95.35;101777.38;5022082;28;20489;-69
2022/09/18 01:47:27;;;;;;;8.43;1.25;;;;;;;11.53;96.23;101771.88;5026538;28;20039;-69
2022/09/18 01:49:56;;;;;;;9.00;1.38;;;;;;;11.59;95.97;101771.19;5028919;28;20029;-69
2022/09/18 01:52:52;;;;;;;11.38;1.35;;;;;;;11.52;96.95;101770.19;5029387;28;20042;-70
2022/09/18 01:55:22;;;;;;;9.95;1.48;;;;;;;11.55;96.91;101775.28;5005736;28;20725;-71
2022/09/18 01:57:50;;;;;;;12.95;1.95;;;;;;;11.55;97.16;101764.31;5030708;28;20037;-69
2022/09/18 02:00:16;;;;;;;4.15;1.67;;;;;;;11.61;96.04;101769.09;5047678;28;20356;-70
2022/09/18 02:03:01;;;;;;;15.10;2.37;;;;;;;11.57;96.49;101759.47;5031549;28;20116;-69
2022/09/18 02:05:32;;;;;;;11.57;1.80;;;;;;;11.56;95.52;101761.41;5048601;28;20342;-70
2022/09/18 02:08:16;;;;;;;5.55;1.35;;;;;;;11.58;96.05;101764.78;5031878;28;20075;-69
2022/09/18 02:10:47;;;;;;;10.75;1.30;;;;;;;11.64;94.89;101768.75;5023954;28;20036;-69
2022/09/18 02:13:20;;;;;;;5.85;0.85;;;;;;;11.53;95.01;101771.88;5044217;28;20025;-70
2022/09/18 02:15:46;;;;;;;9.52;1.10;;;;;;;11.52;95.81;101762.78;5029922;28;20515;-69
2022/09/18 02:18:21;;;;;;;9.95;1.65;;;;;;;11.50;96.42;101761.25;5048480;28;20444;-69
2022/09/18 02:20:47;;;;;;;6.70;1.25;;;;;;;11.60;95.65;101756.41;5048540;28;20037;-69
2022/09/18 02:23:13;;;;;;;8.75;1.92;;;;;;;11.61;95.70;101755.38;5049162;28;20021;-71
2022/09/18 02:25:58;;;;;;;10.23;1.27;;;;;;;11.55;96.23;101740.47;5048908;28;20033;-70
2022/09/18 02:28:26;;;;;;;13.90;1.13;;;;;;;11.51;96.22;101733.63;5047131;28;20094;-69
2022/09/18 02:30:52;;;;;;;10.45;1.33;;;;;;;11.53;95.99;101736.22;5047133;28;20033;-70
2022/09/18 02:33:32;;;;;;;5.20;1.07;;;;;;;11.53;95.88;101736.22;5050051;28;20455;-70
2022/09/18 02:36:39;;;;;;;7.65;1.70;;;;;;;11.51;96.00;101738.25;5033320;28;20115;-70
2022/09/18 02:39:34;;;;;;;7.82;1.13;;;;;;;11.54;96.20;101740.66;5041482;28;20131;-70
2022/09/18 02:42:30;;;;;;;5.70;1.42;;;;;;;11.62;95.59;101744.22;5030721;28;20373;-69
2022/09/18 02:45:22;;;;;;;6.63;1.33;;;;;;;11.60;95.39;101745.44;5038430;28;20032;-70
2022/09/18 02:48:15;;;;;;;7.43;1.58;;;;;;;11.64;95.57;101744.06;5042639;28;20044;-70
2022/09/18 02:50:51;;;;;;;7.43;1.20;;;;;;;11.62;95.85;101754.34;5017660;28;20028;-71
2022/09/18 02:53:24;;;;;;;8.10;1.38;;;;;;;11.62;94.70;101746.09;5047078;28;20037;-71
2022/09/18 02:56:03;;;;;;;9.80;1.30;;;;;;;11.51;95.74;101747.34;5037588;28;20125;-70
2022/09/18 02:58:46;;;;;;;5.20;1.40;;;;;;;11.52;95.55;101738.09;5043236;28;20041;-70
2022/09/18 03:01:13;;;;;;;12.07;1.05;;;;;;;11.49;97.00;101732.13;5047552;28;20032;-70
2022/09/18 03:03:39;;;;;;;8.52;1.98;;;;;;;11.48;96.75;101735.91;5048003;28;20024;-70
2022/09/18 03:06:05;;;;;;;6.43;1.20;;;;;;;11.47;97.17;101728.72;5048831;28;20132;-70
2022/09/18 03:08:31;;;;;;;7.13;1.52;;;;;;;11.38;97.35;101718.81;5046905;28;20021;-70
2022/09/18 03:10:56;;;;;;;7.43;1.37;;;;;;;11.37;97.48;101720.69;5018549;28;20033;-70
2022/09/18 03:13:22;;;;;;;4.80;0.80;;;;;;;11.34;97.79;101717.47;5043326;28;20033;-70
2022/09/18 03:15:47;;;;;;;10.10;1.20;;;;;;;11.32;97.61;101720.38;5029196;28;20503;-69
2022/09/18 03:18:13;;;;;;;7.67;1.27;;;;;;;11.33;97.88;101721.25;5048160;28;20044;-70
2022/09/18 03:20:41;;;;;;;8.40;1.13;;;;;;;11.33;97.70;101716.63;5048294;28;20059;-70
2022/09/18 03:23:07;;;;;;;10.68;1.17;;;;;;;11.32;98.18;101714.88;5028312;28;20091;-70
2022/09/18 03:25:32;;;;;;;5.60;0.77;;;;;;;11.37;98.28;101706.97;5048201;28;20104;-69
2022/09/18 03:27:58;;;;;;;11.15;1.65;;;;;;;11.42;97.05;101711.94;5047100;28;20369;-70
2022/09/18 03:30:23;;;;;;;5.63;1.60;;;;;;;11.51;95.75;101705.34;5046609;28;20051;-69
2022/09/18 03:32:49;;;;;;;13.63;1.53;;;;;;;11.48;95.56;101709.28;5048732;28;20071;-70
2022/09/18 03:35:14;;;;;;;4.90;1.10;;;;;;;11.47;94.79;101696.63;5033422;28;20029;-70
2022/09/18 03:37:39;;;;;;;9.40;1.40;;;;;;;11.59;93.35;101705.31;5012973;28;20504;-70
2022/09/18 03:40:05;;;;;;;10.03;1.10;;;;;;;11.60;93.51;101707.03;5038846;28;20082;-70
2022/09/18 03:42:31;;;;;;;11.13;1.70;;;;;;;11.55;92.92;101704.81;5045719;28;20430;-71
2022/09/18 03:44:56;;;;;;;8.43;1.30;;;;;;;11.52;93.98;101707.91;5025745;28;20047;-70
2022/09/18 03:47:22;;;;;;;13.97;1.60;;;;;;;11.59;93.30;101716.31;5026067;28;20074;-71
2022/09/18 03:49:48;;;;;;;9.27;1.48;;;;;;;11.54;93.67;101707.72;5032355;28;20107;-71
2022/09/18 03:52:13;;;;;;;12.80;1.50;;;;;;;11.60;92.53;101720.75;5050060;28;20072;-71
2022/09/18 03:54:38;;;;;;;6.97;1.20;;;;;;;11.65;92.27;101724.66;5030835;28;20025;-69
2022/09/18 03:57:04;;;;;;;6.97;1.10;;;;;;;11.70;92.23;101730.44;5050778;28;20388;-71
2022/09/18 03:59:29;;;;;;;8.47;1.50;;;;;;;11.76;91.01;101716.00;5017444;28;20033;-70
2022/09/18 04:01:56;;;;;;;8.03;1.33;;;;;;;11.76;91.51;101726.97;5032069;28;20324;-70
2022/09/18 04:04:21;;;;;;;3.47;1.10;;;;;;;11.80;91.33;101728.28;5050863;28;20025;-70
2022/09/18 04:06:47;;;;;;;5.00;1.57;;;;;;;11.78;90.64;101718.53;5049884;28;20514;-71
2022/09/18 04:09:12;;;;;;;9.70;1.10;;;;;;;11.79;91.53;101706.53;5049707;28;20039;-70
2022/09/18 04:11:37;;;;;;;2.80;1.10;;;;;;;11.73;92.50;101701.75;5039867;28;20163;-70
2022/09/18 04:14:03;;;;;;;3.07;0.77;;;;;;;11.81;91.64;101702.59;5049107;28;20021;-72
2022/09/18 04:16:28;;;;;;;4.10;1.10;;;;;;;11.72;92.33;101702.81;5031638;28;20534;-70
2022/09/18 04:18:53;;;;;;;6.10;1.30;;;;;;;11.64;93.98;101700.16;5048847;28;20029;-70
2022/09/18 04:21:18;;;;;;;4.47;1.10;;;;;;;11.64;94.26;101691.91;5032664;28;20116;-70
2022/09/18 04:23:44;;;;;;;14.60;1.47;;;;;;;11.64;93.96;101708.38;5031419;28;20496;-70
2022/09/18 04:26:09;;;;;;;11.53;1.83;;;;;;;11.67;93.50;101708.00;5051034;28;20082;-70
2022/09/18 04:28:37;;;;;;;6.40;1.53;;;;;;;11.66;94.62;101698.06;5049817;28;20033;-70
2022/09/18 04:31:03;;;;;;;9.73;1.33;;;;;;;11.85;91.62;101703.06;5049066;28;20116;-69
2022/09/18 04:33:28;;;;;;;6.43;1.07;;;;;;;11.90;91.40;101731.66;5031677;28;20029;-69
2022/09/18 04:35:55;;;;;;;3.90;1.20;;;;;;;11.91;92.38;101733.34;5033472;28;20103;-70
2022/09/18 04:38:26;;;;;;;12.18;2.03;;;;;;;11.90;93.61;101741.81;5045950;28;20029;-68
2022/09/18 04:40:56;;;;;;;7.28;1.40;;;;;;;11.81;94.52;101731.91;5032633;28;20024;-68
2022/09/18 04:43:21;;;;;;;7.45;1.25;;;;;;;11.76;95.95;101723.38;5047192;28;20029;-70
2022/09/18 04:45:48;;;;;;;4.60;1.00;;;;;;;11.76;95.43;101715.13;5044762;28;20108;-70
2022/09/18 04:48:14;;;;;;;7.05;1.73;;;;;;;11.75;95.43;101718.94;5049284;28;20029;-70
2022/09/18 04:50:39;;;;;;;11.27;1.40;;;;;;;11.71;95.54;101720.31;5032516;28;20037;-69
2022/09/18 04:53:04;;;;;;;13.63;1.97;;;;;;;11.72;95.13;101714.66;5033501;28;20476;-69
2022/09/18 04:55:30;;;;;;;13.77;2.03;;;;;;;11.73;94.13;101715.50;5031372;28;20068;-69
2022/09/18 04:57:55;;;;;;;7.60;1.90;;;;;;;11.73;94.74;101719.09;5049655;28;20376;-70
2022/09/18 05:00:21;;;;;;;8.50;1.07;;;;;;;11.70;94.29;101719.44;5048965;28;20083;-71
2022/09/18 05:02:46;;;;;;;9.33;1.33;;;;;;;11.70;94.64;101707.63;5050720;28;20499;-72
2022/09/18 05:05:11;;;;;;;4.67;1.10;;;;;;;11.71;94.74;101710.22;5040496;28;20387;-70
2022/09/18 05:07:36;;;;;;;6.10;1.13;;;;;;;11.72;94.56;101708.28;5033981;28;20064;-70
2022/09/18 05:10:03;;;;;;;4.43;1.00;;;;;;;11.62;95.67;101700.31;5029368;28;20392;-69
2022/09/18 05:12:29;;;;;;;7.70;1.27;;;;;;;11.60;96.47;101704.28;5047004;28;20441;-70
2022/09/18 05:14:54;;;;;;;5.40;1.20;;;;;;;11.57;95.20;101702.72;5046460;28;20449;-70
2022/09/18 05:17:19;;;;;;;4.93;0.90;;;;;;;11.59;94.90;101697.09;5047185;28;20057;-70
2022/09/18 05:19:45;;;;;;;3.73;1.07;;;;;;;11.59;94.96;101691.59;5032664;28;20043;-69
2022/09/18 05:22:10;;;;;;;11.57;1.87;;;;;;;11.59;95.14;101686.13;5048666;28;20063;-70
2022/09/18 05:24:35;;;;;;;8.47;1.17;;;;;;;11.58;95.02;101692.63;5049919;28;20556;-69
2022/09/18 05:27:01;;;;;;;11.63;1.30;;;;;;;11.56;94.71;101689.19;5048627;28;20056;-69
2022/09/18 05:29:26;;;;;;;8.50;1.17;;;;;;;11.57;93.60;101693.63;5030481;28;20063;-69
2022/09/18 05:31:51;;;;;;;5.93;1.37;;;;;;;11.51;94.93;101689.75;5048593;28;20029;-71
2022/09/18 05:34:17;;;;;;;6.30;1.20;;;;;;;11.51;95.70;101694.34;5031559;28;20029;-69
2022/09/18 05:36:42;;;;;;;7.90;1.27;;;;;;;11.49;96.05;101699.19;5032117;28;20032;-69
2022/09/18 05:39:07;;;;;;;8.67;1.57;;;;;;;11.52;95.66;101701.59;5043905;28;20039;-70
2022/09/18 05:41:32;;;;;;;7.67;2.27;;;;;;;11.53;96.59;101700.53;5048927;28;20674;-69
2022/09/18 05:43:58;;;;;;;4.35;1.02;;;;;;;11.50;96.84;101701.75;5042721;28;20038;-69
2022/09/18 05:46:23;;;;;;;9.00;0.87;;;;;;;11.52;97.16;101701.59;5031593;28;20071;-69
2022/09/18 05:48:49;;;;;;;4.13;0.80;;;;;;;11.57;97.10;101701.84;5048749;28;20037;-69
2022/09/18 05:51:14;;;;;;;5.77;0.87;;;;;;;11.62;96.45;101710.44;5047733;28;20028;-69
2022/09/18 05:53:41;;;;;;;6.47;1.30;;;;;;;11.64;96.17;101720.19;5029748;28;21271;-70
2022/09/18 05:56:06;;;;;;;5.40;1.00;;;;;;;11.69;96.08;101711.44;5029969;28;20032;-71
2022/09/18 05:58:31;;;;;;;11.03;1.20;;;;;;;11.72;95.71;101703.69;5030725;28;20033;-68
2022/09/18 06:01:00;;;;;;;3.30;0.80;;;;;;;11.85;94.43;101697.56;5048932;28;20123;-68
2022/09/18 06:03:25;;;;;;;8.43;2.03;;;;;;;11.88;94.04;101686.19;5029728;28;20372;-69
2022/09/18 06:05:52;;;;;;;6.40;1.50;;;;;;;11.89;94.15;101672.28;5047892;28;20108;-68
2022/09/18 06:08:18;;;;;;;8.40;1.95;;;;;;;11.87;94.74;101679.00;5025034;28;20021;-70
2022/09/18 06:10:44;;;;;;;6.55;1.35;;;;;;;11.89;94.47;101674.19;5042354;28;20051;-69
2022/09/18 06:13:12;;;;;;;7.53;1.50;;;;;;;11.91;94.58;101678.44;5029779;28;20025;-69
2022/09/18 06:15:38;;;;;;;7.68;1.35;;;;;;;11.89;94.85;101677.78;5026014;28;20036;-69
2022/09/18 06:18:05;;;;;;;12.17;1.73;;;;;;;11.97;93.81;101676.88;5044907;28;20480;-69
2022/09/18 06:20:31;;;;;;;6.75;1.23;;;;;;;12.07;92.98;101675.53;5030074;28;20537;-69
2022/09/18 06:23:00;;;;;;;8.00;1.40;;;;;;;12.07;93.95;101685.69;5049129;28;20108;-68
2022/09/18 06:25:27;;;;;;;8.98;1.33;;;;;;;12.06;92.93;101675.75;5029180;28;20024;-69
2022/09/18 06:27:59;;;;;;;7.50;1.75;;;;;;;12.13;92.68;101676.69;5031962;28;20029;-68
2022/09/18 06:30:31;;;;;;;6.35;1.42;;;;;;;12.14;91.66;101667.41;5042971;28;20388;-70
2022/09/18 06:33:05;;;;;;;8.27;1.73;;;;;;;12.14;92.43;101679.28;5020542;28;20029;-70
2022/09/18 06:35:35;;;;;;;7.80;1.20;;;;;;;12.19;92.51;101682.31;5046619;28;20146;-70
2022/09/18 06:38:01;;;;;;;13.85;2.15;;;;;;;12.26;90.71;101683.25;5029200;28;20051;-70
2022/09/18 06:40:27;;;;;;;;;;;;;;;12.27;91.92;101678.63;5026529;28;20044;-70
2022/09/18 06:42:56;;;;;;;6.90;1.23;;;;;;;12.42;89.57;101679.47;5048016;28;19917;-70
2022/09/18 06:45:23;;;;;;;7.70;1.40;;;;;;;12.43;88.12;101678.44;5023174;28;20036;-69
2022/09/18 06:47:48;;;;;;;8.07;1.40;;;;;;;12.46;89.70;101683.56;5044368;28;20421;-68
2022/09/18 06:50:13;;;;;;;7.07;1.10;;;;;;;12.55;88.67;101679.69;5029547;28;20040;-71
2022/09/18 06:52:39;;;;;;;5.77;1.30;;;;;;;12.61;88.72;101676.16;5048270;28;20028;-69
2022/09/18 06:55:04;;;;;;;6.70;1.50;;;;;;;12.68;87.93;101672.47;5045416;28;20037;-70
2022/09/18 06:57:30;;;;;;;13.93;1.27;;;;;;;12.78;86.10;101663.91;5047532;28;20503;-69
2022/09/18 06:59:55;;;;;;;4.87;1.67;;;;;;;12.85;86.23;101673.97;5029334;28;20029;-69
2022/09/18 07:02:20;;;;;;;9.33;1.27;;;;;;;12.88;86.68;101669.97;5045699;28;20060;-69
2022/09/18 07:04:46;;;;;;;5.00;1.47;;;;;;;12.89;86.06;101685.41;5047387;28;20116;-69
2022/09/18 07:07:11;;;;;;;3.60;1.03;;;;;;;12.90;84.75;101666.00;5028248;28;20028;-69
2022/09/18 07:09:36;;;;;;;8.33;1.20;;;;;;;12.93;85.52;101665.63;5044821;28;20036;-69
2022/09/18 07:12:02;;;;;;;7.40;1.27;;;;;;;13.13;82.70;101668.63;5040567;28;20037;-70
2022/09/18 07:14:27;;;;;;;7.53;1.90;;;;;;;13.12;84.80;101664.19;5042898;28;20083;-71
2022/09/18 07:16:52;;;;;;;5.47;1.47;;;;;;;13.14;83.13;101662.09;5039280;28;20778;-70
2022/09/18 07:19:17;;;;;;;6.10;1.13;;;;;;;13.14;82.62;101671.16;5047591;28;20033;-70
2022/09/18 07:21:43;;;;;;;9.63;2.90;;;;;;;13.15;82.44;101663.78;5041902;28;20029;-71
2022/09/18 07:24:08;;;;;;;4.93;1.63;;;;;;;13.15;83.61;101661.91;5050605;28;20031;-70
2022/09/18 07:26:34;;;;;;;4.20;0.90;;;;;;;13.06;83.58;101674.06;5048297;28;20480;-72
2022/09/18 07:28:59;;;;;;;8.83;1.40;;;;;;;13.03;85.98;101688.16;5046752;28;20021;-69
2022/09/18 07:31:24;;;;;;;6.03;1.13;;;;;;;13.01;85.25;101686.66;5048710;28;20070;-69
2022/09/18 07:33:52;;;;;;;9.50;1.30;;;;;;;12.95;85.63;101696.53;5036505;28;20554;-69
2022/09/18 07:36:18;;;;;;;7.15;1.42;;;;;;;12.88;86.83;101680.97;5050081;28;20396;-69
2022/09/18 07:38:43;;;;;;;4.97;1.13;;;;;;;12.94;88.16;101688.44;5028328;28;20025;-69
2022/09/18 07:41:09;;;;;;;9.10;1.57;;;;;;;12.88;87.52;101678.22;5049488;28;20082;-70
2022/09/18 07:43:34;;;;;;;6.07;1.83;;;;;;;12.96;88.30;101678.16;5028533;28;20392;-70
2022/09/18 07:46:01;;;;;;;4.70;1.37;;;;;;;13.05;89.19;101679.72;5041459;28;20104;-69
2022/09/18 07:48:28;;;;;;;5.97;1.52;;;;;;;13.07;85.81;101667.50;5049553;28;20033;-70
2022/09/18 07:50:57;;;;;;;9.02;1.58;;;;;;;13.10;86.31;101672.63;5026490;28;20036;-69
2022/09/18 07:53:23;;;;;;;5.60;1.20;;;;;;;13.27;88.01;101668.59;5049667;28;20499;-70
2022/09/18 07:55:48;;;;;;;8.45;1.52;;;;;;;13.27;88.36;101665.84;5046151;28;20028;-70
2022/09/18 07:58:13;;;;;;;5.67;1.10;;;;;;;13.36;86.93;101670.19;5051252;28;20399;-69
2022/09/18 08:00:39;;;;;;;10.43;1.90;;;;;;;13.43;87.67;101667.47;5049540;28;20032;-69
2022/09/18 08:03:06;;;;;;;7.60;1.83;;;;;;;13.43;88.30;101670.22;5051012;28;20422;-69
2022/09/18 08:05:32;;;;;;;9.43;1.40;;;;;;;13.40;89.53;101668.72;5050814;28;20102;-69
2022/09/18 08:08:11;;;;;;;3.50;1.17;;;;;;;13.38;87.51;101665.31;5050656;28;20495;-69
2022/09/18 08:10:39;;;;;;;18.48;1.60;;;;;;;13.37;89.11;101687.53;5029377;28;20522;-71
2022/09/18 08:13:05;;;;;;;6.55;1.33;;;;;;;13.40;89.49;101667.88;5021988;28;20104;-68
2022/09/18 08:15:32;;;;;;;7.97;2.47;;;;;;;13.47;89.22;101679.81;5028202;28;20021;-69
2022/09/18 08:17:57;;;;;;;10.35;1.80;;;;;;;13.48;90.01;101682.38;5049183;28;20143;-69
2022/09/18 08:20:22;;;;;;;4.27;1.60;;;;;;;13.49;86.82;101677.69;5049083;28;20536;-69
2022/09/18 08:22:48;;;;;;;6.30;1.20;;;;;;;13.63;87.98;101677.66;5048796;28;20032;-69
2022/09/18 08:25:13;;;;;;;5.63;1.37;;;;;;;13.78;87.83;101674.81;5029592;28;20388;-70
2022/09/18 08:27:40;;;;;;;14.43;1.23;;;;;;;13.94;88.78;101677.31;5049062;28;20025;-69
2022/09/18 08:30:06;;;;;;;;;;;;;;;14.04;87.24;101681.41;5049651;28;20033;-70
2022/09/18 08:32:33;;;;;;;7.32;1.58;;;;;;;14.03;86.76;101687.97;5048483;28;19917;-69
2022/09/18 08:35:01;;;;;;;4.13;1.08;;;;;;;14.11;87.76;101684.22;5048676;28;20464;-68
2022/09/18 08:37:28;;;;;;;8.02;1.17;;;;;;;14.21;86.19;101684.75;5049433;28;20043;-69
2022/09/18 08:39:54;;;;;;;8.40;1.25;;;;;;;14.34;88.00;101685.72;5043548;28;20039;-69
2022/09/18 08:42:34;;;;;;;6.50;1.23;;;;;;;14.25;86.00;101706.19;5041855;28;20123;-69
2022/09/18 08:45:14;;;;;;;5.25;1.10;;;;;;;14.05;85.71;101704.31;5027142;28;20032;-68
2022/09/18 08:47:45;;;;;;;4.93;1.10;;;;;;;13.88;87.27;101703.72;5020265;28;20075;-71
2022/09/18 08:50:20;;;;;;;6.80;1.67;;;;;;;13.80;86.62;101712.13;5024719;28;20025;-70
2022/09/18 08:52:56;;;;;;;6.15;1.30;;;;;;;13.78;88.72;101711.47;5041932;28;20062;-68
2022/09/18 08:55:29;;;;;;;2.58;1.40;;;;;;;13.68;85.89;101699.09;5030866;28;20116;-68
2022/09/18 08:58:01;;;;;;;9.70;1.80;;;;;;;13.69;83.57;101709.91;5042840;28;20108;-68
2022/09/18 09:00:33;;;;;;;4.15;0.85;;;;;;;13.75;84.64;101705.50;5027790;28;20033;-69
2022/09/18 09:03:27;;;;;;;6.93;1.02;;;;;;;13.74;84.35;101699.16;5025915;28;20028;-71
2022/09/18 09:06:00;;;;;;;5.38;0.85;;;;;;;13.66;82.86;101696.53;5021377;28;20721;-68
2022/09/18 09:08:39;;;;;;;7.40;1.00;;;;;;;13.78;82.63;101685.84;5047598;28;20029;-69
2022/09/18 09:11:10;;;;;;;5.15;1.25;;;;;;;13.72;81.52;101687.47;5053486;28;20029;-68
2022/09/18 09:13:39;;;;;;;0.93;0.73;;;;;;;13.71;83.31;101683.00;5046280;28;20036;-69
2022/09/18 09:16:15;;;;;;;5.00;1.42;;;;;;;13.83;82.99;101673.16;5027682;28;20029;-68
2022/09/18 09:18:51;;;;;;;5.17;1.43;;;;;;;13.94;82.39;101671.78;5050614;28;20423;-68
2022/09/18 09:21:21;;;;;;;8.70;1.52;;;;;;;13.99;83.06;101669.28;5048371;28;20110;-70
2022/09/18 09:23:59;;;;;;;5.63;1.58;;;;;;;14.11;83.97;101663.03;5030404;28;20033;-70
2022/09/18 09:26:24;;;;;;;;;;;;;;;14.18;81.83;101652.91;5043050;28;20122;-70
2022/09/18 09:29:05;;;;;;;9.48;1.40;;;;;;;14.29;81.87;101648.75;5049798;28;19916;-72
2022/09/18 09:32:03;;;;;;;10.38;1.45;;;;;;;14.45;82.41;101653.97;5041178;28;20124;-69
2022/09/18 09:34:44;;;;;;;6.88;1.05;;;;;;;14.62;83.08;101655.34;5036682;28;20041;-70
2022/09/18 09:37:18;;;;;;;3.75;1.20;;;;;;;14.67;82.20;101647.31;5030178;28;20032;-71
2022/09/18 09:39:51;;;;;;;5.55;0.82;;;;;;;14.70;78.37;101653.28;5029840;28;20028;-71
2022/09/18 09:42:41;;;;;;;6.40;1.10;;;;;;;14.69;79.23;101647.97;5049242;28;20114;-68
2022/09/18 09:45:15;;;;;;;8.05;0.90;;;;;;;14.76;80.46;101648.84;5050201;28;20112;-71
2022/09/18 09:48:17;;;;;;;3.08;1.33;;;;;;;14.90;79.15;101647.84;5047001;28;20503;-68
2022/09/18 09:50:54;;;;;;;3.35;0.80;;;;;;;15.04;76.01;101667.00;5050442;28;20033;-68
2022/09/18 09:53:23;;;;;;;4.25;1.23;;;;;;;15.36;79.11;101655.25;5048668;28;20112;-69
2022/09/18 09:55:59;;;;;;;2.40;0.82;;;;;;;15.53;74.96;101658.50;5049486;28;20130;-68
2022/09/18 09:58:43;;;;;;;5.22;0.90;;;;;;;15.73;76.75;101662.97;5030950;28;20112;-70
2022/09/18 10:01:15;;;;;;;3.00;0.90;;;;;;;15.92;76.53;101664.91;5028053;28;20037;-69
2022/09/18 10:04:11;;;;;;;5.93;0.88;;;;;;;15.99;75.08;101668.53;5031508;28;20087;-69
2022/09/18 10:06:47;;;;;;;6.97;1.42;;;;;;;16.13;76.84;101652.78;5045096;28;20052;-69
2022/09/18 10:09:37;;;;;;;3.88;1.35;;;;;;;15.95;75.69;101650.66;5015119;28;20052;-70
2022/09/18 10:12:15;;;;;;;5.65;1.20;;;;;;;15.78;76.24;101651.28;5040713;28;20056;-70
2022/09/18 10:14:45;;;;;;;6.60;1.67;;;;;;;15.76;78.38;101656.19;5030809;28;20033;-71
2022/09/18 10:17:12;;;;;;;4.85;1.33;;;;;;;15.71;76.54;101656.81;5041720;28;20037;-71
2022/09/18 10:19:41;;;;;;;5.00;1.23;;;;;;;15.45;74.61;101651.25;5049633;28;20492;-70
2022/09/18 10:22:11;;;;;;;8.65;1.10;;;;;;;15.05;74.57;101646.63;5047922;28;20531;-71
2022/09/18 10:24:55;;;;;;;6.40;1.10;;;;;;;14.90;78.01;101658.88;5030874;28;20495;-69
2022/09/18 10:27:21;;;;;;;7.47;1.05;;;;;;;14.65;77.96;101663.22;5047432;28;20029;-72
2022/09/18 10:29:46;;;;;;;3.03;1.00;;;;;;;14.61;79.99;101664.66;5049221;28;20029;-70
2022/09/18 10:32:12;;;;;;;15.00;1.90;;;;;;;14.39;83.22;101690.59;5045772;28;20033;-69
2022/09/18 10:34:43;;;;;;;4.28;1.15;;;;;;;13.97;85.78;101694.28;5029696;28;20032;-69
2022/09/18 10:37:27;;;;;;;7.40;1.48;;;;;;;13.65;87.64;101692.06;5042697;28;20025;-69
2022/09/18 10:39:56;;;;;;;4.32;1.10;;;;;;;13.48;88.06;101687.88;5024418;28;20040;-68
2022/09/18 10:42:24;;;;;;;5.57;1.42;;;;;;;13.28;90.65;101680.47;5045715;28;20535;-70
2022/09/18 10:44:59;;;;;;;6.85;1.50;;;;;;;13.21;91.30;101688.63;5048547;28;20476;-68
2022/09/18 10:47:35;;;;;;;11.98;3.13;;;;;;;13.18;91.24;101694.50;5046040;28;20079;-69
2022/09/18 10:50:10;;;;;;;7.85;2.08;;;;;;;13.07;92.25;101696.91;5046270;28;20108;-71
2022/09/18 10:52:37;;;;;;;7.43;1.70;;;;;;;13.12;93.00;101686.19;5043500;28;20029;-68
2022/09/18 10:55:06;;;;;;;7.47;1.23;;;;;;;13.19;93.31;101682.44;5045543;28;20029;-69
2022/09/18 10:57:36;;;;;;;10.35;1.38;;;;;;;13.29;92.93;101676.66;5019411;28;20037;-68
2022/09/18 11:00:28;;;;;;;8.20;2.63;;;;;;;13.45;92.25;101674.47;5044424;28;20276;-69
2022/09/18 11:03:05;;;;;;;14.98;2.00;;;;;;;13.44;92.24;101666.44;5047518;28;20032;-68
2022/09/18 11:05:36;;;;;;;7.35;1.45;;;;;;;13.47;91.53;101666.03;5046292;28;20029;-69
2022/09/18 11:08:05;;;;;;;6.13;2.03;;;;;;;13.39;91.41;101664.25;5046938;28;20104;-68
2022/09/18 11:10:32;;;;;;;5.43;1.80;;;;;;;13.45;91.83;101676.41;5048715;28;20098;-68
2022/09/18 11:13:01;;;;;;;5.13;1.40;;;;;;;13.42;90.26;101674.03;5044027;28;20079;-68
2022/09/18 11:15:30;;;;;;;8.65;1.10;;;;;;;13.46;90.69;101687.19;5029282;28;20021;-68
2022/09/18 11:17:58;;;;;;;10.15;1.73;;;;;;;13.30;89.74;101684.69;5041220;28;20531;-69
2022/09/18 11:20:33;;;;;;;7.00;1.75;;;;;;;13.27;91.11;101697.97;5039793;28;20032;-70
2022/09/18 11:23:17;;;;;;;4.80;1.25;;;;;;;13.33;91.72;101705.47;5045138;28;20032;-68
2022/09/18 11:25:44;;;;;;;1.88;0.95;;;;;;;13.25;90.41;101711.09;5048913;28;20536;-69
2022/09/18 11:28:31;;;;;;;7.00;1.38;;;;;;;13.18;89.74;101721.19;5037019;28;20107;-69
2022/09/18 11:31:00;;;;;;;4.57;0.98;;;;;;;13.12;90.28;101714.53;5042760;28;20084;-69
2022/09/18 11:33:28;;;;;;;4.85;1.00;;;;;;;13.13;91.10;101720.91;5025589;28;20094;-69
2022/09/18 11:36:01;;;;;;;2.97;1.10;;;;;;;13.12;91.46;101727.47;5024623;28;20033;-70
2022/09/18 11:38:28;;;;;;;13.75;1.83;;;;;;;13.15;93.09;101718.81;5047483;28;20033;-69